createdAt,value
2018-09-12T00:00:12.722Z,1018.55
2018-09-12T00:01:22.292Z,1018.55
2018-09-12T00:02:32.139Z,1018.53
2018-09-12T00:03:42.187Z,1018.52
2018-09-12T00:04:52.070Z,1018.52
2018-09-12T00:06:02.182Z,1018.58
2018-09-12T00:07:11.755Z,1018.51
2018-09-12T00:08:21.597Z,1018.5
2018-09-12T00:09:31.447Z,1018.46
2018-09-12T00:10:41.294Z,1018.49
2018-09-12T00:11:51.145Z,1018.47
2018-09-12T00:13:00.728Z,1018.48
2018-09-12T00:14:10.297Z,1018.48
2018-09-12T00:15:19.871Z,1018.48
2018-09-12T00:16:29.463Z,1018.43
2018-09-12T00:17:39.035Z,1018.44
2018-09-12T00:18:48.340Z,1018.43
2018-09-12T00:19:58.507Z,1018.44
2018-09-12T00:21:08.088Z,1018.47
2018-09-12T00:22:18.093Z,1018.41
2018-09-12T00:23:27.938Z,1018.39
2018-09-12T00:24:37.780Z,1018.4
2018-09-12T00:25:47.627Z,1018.37
2018-09-12T00:26:57.507Z,1018.37
2018-09-12T00:28:07.355Z,1018.4
2018-09-12T00:29:17.196Z,1018.31
2018-09-12T00:30:26.776Z,1018.35
2018-09-12T00:31:36.899Z,1018.38
2018-09-12T00:32:47.018Z,1018.33
2018-09-12T00:33:56.865Z,1018.36
2018-09-12T00:35:06.199Z,1018.38
2018-09-12T00:36:16.046Z,1018.34
2018-09-12T00:37:25.626Z,1018.44
2018-09-12T00:38:35.222Z,1018.46
2018-09-12T00:39:44.795Z,1018.47
2018-09-12T00:40:54.645Z,1018.44
2018-09-12T00:42:04.787Z,1018.45
2018-09-12T00:43:14.623Z,1018.44
2018-09-12T00:44:24.196Z,1018.45
2018-09-12T00:45:33.500Z,1018.46
2018-09-12T00:46:43.075Z,1018.5
2018-09-12T00:47:52.382Z,1018.55
2018-09-12T00:49:02.502Z,1018.55
2018-09-12T00:50:12.350Z,1018.55
2018-09-12T00:51:22.224Z,1018.56
2018-09-12T00:52:32.071Z,1018.53
2018-09-12T00:53:41.913Z,1018.59
2018-09-12T00:54:52.030Z,1018.63
2018-09-12T00:56:01.877Z,1018.6
2018-09-12T00:57:11.721Z,1018.66
2018-09-12T00:58:21.904Z,1018.65
2018-09-12T00:59:31.752Z,1018.62
2018-09-12T01:00:41.327Z,1018.65
2018-09-12T01:01:51.177Z,1018.62
2018-09-12T01:03:01.054Z,1018.65
2018-09-12T01:04:11.166Z,1018.66
2018-09-12T01:05:20.469Z,1018.65
2018-09-12T01:06:30.045Z,1018.67
2018-09-12T01:07:40.161Z,1018.65
2018-09-12T01:08:49.464Z,1018.65
2018-09-12T01:09:59.314Z,1018.65
2018-09-12T01:11:09.160Z,1018.66
2018-09-12T01:12:19.275Z,1018.66
2018-09-12T01:13:28.586Z,1018.67
2018-09-12T01:14:38.698Z,1018.67
2018-09-12T01:15:48.537Z,1018.62
2018-09-12T01:16:57.842Z,1018.67
2018-09-12T01:18:07.684Z,1018.67
2018-09-12T01:19:17.529Z,1018.71
2018-09-12T01:20:26.833Z,1018.72
2018-09-12T01:21:37.033Z,1018.71
2018-09-12T01:22:46.875Z,1018.73
2018-09-12T01:23:56.716Z,1018.67
2018-09-12T01:25:06.564Z,1018.66
2018-09-12T01:26:15.866Z,1018.7
2018-09-12T01:27:25.979Z,1018.71
2018-09-12T01:28:35.822Z,1018.74
2018-09-12T01:29:45.138Z,1018.75
2018-09-12T01:30:54.710Z,1018.72
2018-09-12T01:32:04.563Z,1018.7
2018-09-12T01:33:13.877Z,1018.71
2018-09-12T01:34:24.026Z,1018.69
2018-09-12T01:35:33.873Z,1018.72
2018-09-12T01:36:43.715Z,1018.77
2018-09-12T01:37:53.836Z,1018.74
2018-09-12T01:39:03.541Z,1018.74
2018-09-12T01:40:13.679Z,1018.74
2018-09-12T01:41:23.528Z,1018.79
2018-09-12T01:42:33.370Z,1018.79
2018-09-12T01:43:43.245Z,1018.77
2018-09-12T01:44:52.819Z,1018.78
2018-09-12T01:46:02.692Z,1018.73
2018-09-12T01:47:12.266Z,1018.7
2018-09-12T01:48:21.570Z,1018.73
2018-09-12T01:49:31.418Z,1018.71
2018-09-12T01:50:41.600Z,1018.69
2018-09-12T01:51:51.449Z,1018.68
2018-09-12T01:53:00.751Z,1018.74
2018-09-12T01:54:10.319Z,1018.68
2018-09-12T01:55:19.633Z,1018.67
2018-09-12T01:56:28.953Z,1018.63
2018-09-12T01:57:38.530Z,1018.65
2018-09-12T01:58:48.375Z,1018.63
2018-09-12T01:59:58.218Z,1018.65
2018-09-12T02:01:07.825Z,1018.63
2018-09-12T02:02:17.399Z,1018.64
2018-09-12T02:03:27.247Z,1018.68
2018-09-12T02:04:36.823Z,1018.65
2018-09-12T02:05:46.670Z,1018.65
2018-09-12T02:06:56.509Z,1018.59
2018-09-12T02:08:05.544Z,1018.61
2018-09-12T02:09:15.122Z,1018.62
2018-09-12T02:10:24.973Z,1018.58
2018-09-12T02:11:35.089Z,1018.59
2018-09-12T02:12:44.928Z,1018.56
2018-09-12T02:13:54.764Z,1018.57
2018-09-12T02:15:04.348Z,1018.6
2018-09-12T02:16:14.218Z,1018.58
2018-09-12T02:17:23.790Z,1018.6
2018-09-12T02:18:33.899Z,1018.58
2018-09-12T02:19:43.740Z,1018.57
2018-09-12T02:20:53.049Z,1018.52
2018-09-12T02:22:02.899Z,1018.51
2018-09-12T02:23:13.010Z,1018.57
2018-09-12T02:24:22.858Z,1018.5
2018-09-12T02:25:32.432Z,1018.49
2018-09-12T02:26:42.008Z,1018.47
2018-09-12T02:27:51.587Z,1018.44
2018-09-12T02:29:01.158Z,1018.45
2018-09-12T02:30:10.741Z,1018.47
2018-09-12T02:31:20.635Z,1018.44
2018-09-12T02:32:30.485Z,1018.45
2018-09-12T02:33:39.793Z,1018.45
2018-09-12T02:34:48.830Z,1018.47
2018-09-12T02:35:58.952Z,1018.47
2018-09-12T02:37:08.546Z,1018.43
2018-09-12T02:38:18.396Z,1018.47
2018-09-12T02:39:28.543Z,1018.47
2018-09-12T02:40:38.383Z,1018.49
2018-09-12T02:41:48.513Z,1018.48
2018-09-12T02:42:58.355Z,1018.51
2018-09-12T02:44:08.501Z,1018.5
2018-09-12T02:45:18.622Z,1018.49
2018-09-12T02:46:28.473Z,1018.47
2018-09-12T02:47:38.341Z,1018.47
2018-09-12T02:48:48.189Z,1018.5
2018-09-12T02:49:58.047Z,1018.52
2018-09-12T02:51:07.891Z,1018.5
2018-09-12T02:52:17.741Z,1018.45
2018-09-12T02:53:26.508Z,1018.45
2018-09-12T02:54:36.648Z,1018.46
2018-09-12T02:55:46.225Z,1018.43
2018-09-12T02:56:55.795Z,1018.41
2018-09-12T02:58:05.639Z,1018.43
2018-09-12T02:59:15.479Z,1018.4
2018-09-12T03:00:25.597Z,1018.41
2018-09-12T03:01:35.707Z,1018.43
2018-09-12T03:02:45.553Z,1018.4
2018-09-12T03:03:55.663Z,1018.42
2018-09-12T03:05:04.969Z,1018.41
2018-09-12T03:06:15.081Z,1018.42
2018-09-12T03:07:24.381Z,1018.41
2018-09-12T03:08:33.687Z,1018.39
2018-09-12T03:09:43.265Z,1018.39
2018-09-12T03:10:53.115Z,1018.33
2018-09-12T03:12:02.743Z,1018.36
2018-09-12T03:13:12.317Z,1018.34
2018-09-12T03:14:21.623Z,1018.35
2018-09-12T03:15:31.733Z,1018.36
2018-09-12T03:16:41.647Z,1018.33
2018-09-12T03:17:51.495Z,1018.3
2018-09-12T03:19:01.347Z,1018.3
2018-09-12T03:20:10.928Z,1018.31
2018-09-12T03:21:20.773Z,1018.27
2018-09-12T03:22:30.630Z,1018.32
2018-09-12T03:23:39.969Z,1018.3
2018-09-12T03:24:49.815Z,1018.34
2018-09-12T03:25:59.663Z,1018.3
2018-09-12T03:27:08.969Z,1018.21
2018-09-12T03:28:19.100Z,1018.21
2018-09-12T03:29:28.163Z,1018.22
2018-09-12T03:30:37.752Z,1018.19
2018-09-12T03:31:47.610Z,1018.18
2018-09-12T03:32:57.740Z,1018.18
2018-09-12T03:34:07.317Z,1018.16
2018-09-12T03:35:17.154Z,1018.19
2018-09-12T03:36:27.002Z,1018.18
2018-09-12T03:37:36.850Z,1018.21
2018-09-12T03:38:46.976Z,1018.17
2018-09-12T03:39:56.552Z,1018.15
2018-09-12T03:41:06.395Z,1018.25
2018-09-12T03:42:16.244Z,1018.28
2018-09-12T03:43:25.548Z,1018.27
2018-09-12T03:44:35.277Z,1018.3
2018-09-12T03:45:44.860Z,1018.32
2018-09-12T03:46:54.756Z,1018.29
2018-09-12T03:48:04.690Z,1018.27
2018-09-12T03:49:14.460Z,1018.29
2018-09-12T03:50:24.305Z,1018.34
2018-09-12T03:51:34.149Z,1018.31
2018-09-12T03:52:43.733Z,1018.34
2018-09-12T03:53:53.873Z,1018.34
2018-09-12T03:55:03.989Z,1018.37
2018-09-12T03:56:13.561Z,1018.41
2018-09-12T03:57:22.867Z,1018.34
2018-09-12T03:58:32.976Z,1018.33
2018-09-12T03:59:42.816Z,1018.3
2018-09-12T04:00:52.410Z,1018.31
2018-09-12T04:02:02.530Z,1018.23
2018-09-12T04:03:12.373Z,1018.27
2018-09-12T04:04:21.945Z,1018.3
2018-09-12T04:05:31.792Z,1018.37
2018-09-12T04:06:41.633Z,1018.31
2018-09-12T04:07:51.210Z,1018.37
2018-09-12T04:09:01.333Z,1018.36
2018-09-12T04:10:11.449Z,1018.33
2018-09-12T04:11:21.026Z,1018.28
2018-09-12T04:12:31.143Z,1018.23
2018-09-12T04:13:41.297Z,1018.31
2018-09-12T04:14:51.137Z,1018.28
2018-09-12T04:16:00.711Z,1018.21
2018-09-12T04:17:10.040Z,1018.24
2018-09-12T04:18:19.880Z,1018.31
2018-09-12T04:19:29.189Z,1018.31
2018-09-12T04:20:39.040Z,1018.27
2018-09-12T04:21:48.339Z,1018.3
2018-09-12T04:22:58.477Z,1018.33
2018-09-12T04:24:08.356Z,1018.27
2018-09-12T04:25:18.964Z,1018.28
2018-09-12T04:26:28.276Z,1018.3
2018-09-12T04:27:37.857Z,1018.39
2018-09-12T04:28:47.437Z,1018.37
2018-09-12T04:29:57.004Z,1018.31
2018-09-12T04:31:06.861Z,1018.38
2018-09-12T04:32:16.217Z,1018.35
2018-09-12T04:33:25.532Z,1018.27
2018-09-12T04:34:35.649Z,1018.28
2018-09-12T04:35:45.497Z,1018.33
2018-09-12T04:36:55.411Z,1018.3
2018-09-12T04:38:05.271Z,1018.31
2018-09-12T04:39:15.162Z,1018.35
2018-09-12T04:40:25.277Z,1018.38
2018-09-12T04:41:35.127Z,1018.42
2018-09-12T04:42:44.790Z,1018.47
2018-09-12T04:43:55.442Z,1018.52
2018-09-12T04:45:05.601Z,1018.52
2018-09-12T04:46:15.455Z,1018.53
2018-09-12T04:47:25.031Z,1018.51
2018-09-12T04:48:35.318Z,1018.54
2018-09-12T04:49:45.743Z,1018.59
2018-09-12T04:50:55.871Z,1018.63
2018-09-12T04:52:05.460Z,1018.64
2018-09-12T04:53:15.304Z,1018.6
2018-09-12T04:54:24.887Z,1018.61
2018-09-12T04:55:34.470Z,1018.65
2018-09-12T04:56:44.325Z,1018.61
2018-09-12T04:57:53.898Z,1018.63
2018-09-12T04:59:03.748Z,1018.71
2018-09-12T05:00:13.327Z,1018.73
2018-09-12T05:01:22.910Z,1018.73
2018-09-12T05:02:33.062Z,1018.7
2018-09-12T05:03:43.201Z,1018.68
2018-09-12T05:04:53.055Z,1018.64
2018-09-12T05:06:03.183Z,1018.62
2018-09-12T05:07:13.030Z,1018.68
2018-09-12T05:08:22.927Z,1018.72
2018-09-12T05:09:32.510Z,1018.72
2018-09-12T05:10:42.385Z,1018.79
2018-09-12T05:11:52.231Z,1018.83
2018-09-12T05:13:02.132Z,1018.88
2018-09-12T05:14:12.037Z,1018.86
2018-09-12T05:15:21.906Z,1018.83
2018-09-12T05:16:32.018Z,1018.84
2018-09-12T05:17:42.210Z,1018.86
2018-09-12T05:18:51.785Z,1018.82
2018-09-12T05:20:01.679Z,1018.77
2018-09-12T05:21:11.530Z,1018.78
2018-09-12T05:22:20.839Z,1018.82
2018-09-12T05:23:30.953Z,1018.8
2018-09-12T05:24:40.795Z,1018.77
2018-09-12T05:25:50.633Z,1018.78
2018-09-12T05:27:00.480Z,1018.77
2018-09-12T05:28:10.356Z,1018.72
2018-09-12T05:29:20.490Z,1018.73
2018-09-12T05:30:30.619Z,1018.66
2018-09-12T05:31:40.769Z,1018.6
2018-09-12T05:32:50.074Z,1018.67
2018-09-12T05:33:59.389Z,1018.73
2018-09-12T05:35:09.506Z,1018.66
2018-09-12T05:36:19.107Z,1018.66
2018-09-12T05:37:28.582Z,1018.68
2018-09-12T05:38:38.399Z,1018.65
2018-09-12T05:39:48.244Z,1018.58
2018-09-12T05:40:57.815Z,1018.6
2018-09-12T05:42:07.392Z,1018.62
2018-09-12T05:43:17.584Z,1018.54
2018-09-12T05:44:26.882Z,1018.53
2018-09-12T05:45:36.462Z,1018.61
2018-09-12T05:46:46.064Z,1018.64
2018-09-12T05:47:55.368Z,1018.63
2018-09-12T05:49:05.499Z,1018.64
2018-09-12T05:50:15.404Z,1018.71
2018-09-12T05:51:25.604Z,1018.69
2018-09-12T05:52:35.151Z,1018.67
2018-09-12T05:53:44.722Z,1018.7
2018-09-12T05:54:54.038Z,1018.7
2018-09-12T05:56:03.608Z,1018.68
2018-09-12T05:57:13.959Z,1018.67
2018-09-12T05:58:23.806Z,1018.74
2018-09-12T05:59:33.645Z,1018.73
2018-09-12T06:00:44.025Z,1018.7
2018-09-12T06:01:53.601Z,1018.7
2018-09-12T06:03:03.178Z,1018.68
2018-09-12T06:04:12.752Z,1018.66
2018-09-12T06:05:22.323Z,1018.64
2018-09-12T06:06:32.304Z,1018.78
2018-09-12T06:07:42.475Z,1018.74
2018-09-12T06:08:52.608Z,1018.69
2018-09-12T06:10:02.186Z,1018.76
2018-09-12T06:11:11.758Z,1018.8
2018-09-12T06:12:21.336Z,1018.74
2018-09-12T06:13:31.491Z,1018.7
2018-09-12T06:14:41.843Z,1018.71
2018-09-12T06:15:51.689Z,1018.77
2018-09-12T06:17:01.800Z,1018.77
2018-09-12T06:18:11.648Z,1018.8
2018-09-12T06:19:21.219Z,1018.78
2018-09-12T06:20:30.782Z,1018.79
2018-09-12T06:21:40.354Z,1018.82
2018-09-12T06:22:49.929Z,1018.81
2018-09-12T06:23:59.778Z,1018.83
2018-09-12T06:25:09.075Z,1018.88
2018-09-12T06:26:18.649Z,1018.86
2018-09-12T06:27:28.493Z,1018.83
2018-09-12T06:28:38.062Z,1018.82
2018-09-12T06:29:47.761Z,1018.85
2018-09-12T06:30:57.335Z,1018.83
2018-09-12T06:32:07.179Z,1018.81
2018-09-12T06:33:17.291Z,1018.79
2018-09-12T06:34:27.131Z,1018.82
2018-09-12T06:35:37.256Z,1018.78
2018-09-12T06:36:47.466Z,1018.83
2018-09-12T06:37:57.311Z,1018.87
2018-09-12T06:39:06.885Z,1018.86
2018-09-12T06:40:17.087Z,1018.91
2018-09-12T06:41:26.392Z,1018.92
2018-09-12T06:42:35.970Z,1018.94
2018-09-12T06:43:45.844Z,1018.96
2018-09-12T06:44:55.961Z,1019
2018-09-12T06:46:06.070Z,1019.02
2018-09-12T06:47:15.642Z,1019
2018-09-12T06:48:25.748Z,1019
2018-09-12T06:49:35.589Z,1018.95
2018-09-12T06:50:45.155Z,1018.95
2018-09-12T06:51:54.994Z,1018.9
2018-09-12T06:53:04.851Z,1018.94
2018-09-12T06:54:14.692Z,1018.93
2018-09-12T06:55:23.727Z,1019.02
2018-09-12T06:56:33.027Z,1019.02
2018-09-12T06:57:42.869Z,1019.05
2018-09-12T06:58:52.439Z,1019.09
2018-09-12T07:00:01.741Z,1019.12
2018-09-12T07:01:11.402Z,1019.09
2018-09-12T07:02:20.931Z,1019.05
2018-09-12T07:03:30.536Z,1019.11
2018-09-12T07:04:40.115Z,1019.07
2018-09-12T07:05:49.991Z,1019.06
2018-09-12T07:06:59.564Z,1019.07
2018-09-12T07:08:09.438Z,1019.1
2018-09-12T07:09:19.047Z,1019.12
2018-09-12T07:10:28.353Z,1019.09
2018-09-12T07:11:37.924Z,1019.1
2018-09-12T07:12:47.770Z,1019.1
2018-09-12T07:13:57.610Z,1019.06
2018-09-12T07:15:07.734Z,1019.03
2018-09-12T07:16:17.579Z,1019.09
2018-09-12T07:17:27.190Z,1019.09
2018-09-12T07:18:36.490Z,1019.08
2018-09-12T07:19:45.788Z,1019.09
2018-09-12T07:20:55.635Z,1019.13
2018-09-12T07:22:05.010Z,1019.12
2018-09-12T07:23:14.848Z,1019.12
2018-09-12T07:24:24.452Z,1019.09
2018-09-12T07:25:35.555Z,1019.09
2018-09-12T07:26:45.397Z,1019.06
2018-09-12T07:27:55.242Z,1019.09
2018-09-12T07:29:05.081Z,1019.12
2018-09-12T07:30:14.678Z,1019.15
2018-09-12T07:31:24.919Z,1019.14
2018-09-12T07:32:34.806Z,1019.16
2018-09-12T07:33:44.930Z,1019.18
2018-09-12T07:34:54.773Z,1019.16
2018-09-12T07:36:04.889Z,1019.22
2018-09-12T07:37:14.740Z,1019.22
2018-09-12T07:38:24.607Z,1019.21
2018-09-12T07:39:34.711Z,1019.19
2018-09-12T07:40:44.287Z,1019.24
2018-09-12T07:41:53.857Z,1019.29
2018-09-12T07:43:03.424Z,1019.34
2018-09-12T07:44:13.545Z,1019.34
2018-09-12T07:45:23.652Z,1019.39
2018-09-12T07:46:32.682Z,1019.41
2018-09-12T07:47:42.255Z,1019.4
2018-09-12T07:48:52.424Z,1019.4
2018-09-12T07:50:02.500Z,1019.44
2018-09-12T07:51:12.348Z,1019.45
2018-09-12T07:52:21.917Z,1019.41
2018-09-12T07:53:31.760Z,1019.39
2018-09-12T07:54:41.603Z,1019.36
2018-09-12T07:55:51.763Z,1019.29
2018-09-12T07:57:01.545Z,1019.33
2018-09-12T07:58:11.397Z,1019.33
2018-09-12T07:59:21.237Z,1019.37
2018-09-12T08:00:31.162Z,1019.43
2018-09-12T08:01:41.732Z,1019.46
2018-09-12T08:02:51.584Z,1019.46
2018-09-12T08:04:00.894Z,1019.43
2018-09-12T08:05:10.853Z,1019.44
2018-09-12T08:06:21.151Z,1019.4
2018-09-12T08:07:30.996Z,1019.4
2018-09-12T08:08:40.569Z,1019.47
2018-09-12T08:09:50.411Z,1019.55
2018-09-12T08:11:00.536Z,1019.52
2018-09-12T08:12:10.178Z,1019.52
2018-09-12T08:13:20.884Z,1019.52
2018-09-12T08:14:30.190Z,1019.52
2018-09-12T08:15:40.335Z,1019.54
2018-09-12T08:16:50.249Z,1019.62
2018-09-12T08:18:00.732Z,1019.61
2018-09-12T08:19:10.398Z,1019.67
2018-09-12T08:20:20.084Z,1019.67
2018-09-12T08:21:29.928Z,1019.65
2018-09-12T08:22:39.769Z,1019.71
2018-09-12T08:23:49.075Z,1019.73
2018-09-12T08:24:59.189Z,1019.75
2018-09-12T08:26:08.889Z,1019.79
2018-09-12T08:27:19.204Z,1019.84
2018-09-12T08:28:28.772Z,1019.82
2018-09-12T08:29:38.348Z,1019.82
2018-09-12T08:30:48.195Z,1019.85
2018-09-12T08:31:57.795Z,1019.76
2018-09-12T08:33:07.367Z,1019.78
2018-09-12T08:34:17.403Z,1019.79
2018-09-12T08:35:26.979Z,1019.85
2018-09-12T08:36:36.818Z,1019.84
2018-09-12T08:37:46.393Z,1019.9
2018-09-12T08:38:56.512Z,1019.88
2018-09-12T08:40:06.355Z,1019.9
2018-09-12T08:41:15.933Z,1019.91
2018-09-12T08:42:26.074Z,1019.93
2018-09-12T08:43:36.689Z,1019.98
2018-09-12T08:44:46.539Z,1020.01
2018-09-12T08:45:56.644Z,1020.04
2018-09-12T08:47:05.950Z,1020.11
2018-09-12T08:48:15.793Z,1020.15
2018-09-12T08:49:25.642Z,1020.12
2018-09-12T08:50:34.940Z,1020.15
2018-09-12T08:51:44.780Z,1020.17
2018-09-12T08:52:54.086Z,1020.14
2018-09-12T08:54:04.776Z,1020.11
2018-09-12T08:55:14.635Z,1020.16
2018-09-12T08:56:24.481Z,1020.17
2018-09-12T08:57:33.783Z,1020.19
2018-09-12T08:58:43.626Z,1020.2
2018-09-12T08:59:53.781Z,1020.25
2018-09-12T09:01:03.910Z,1020.23
2018-09-12T09:02:13.814Z,1020.3
2018-09-12T09:03:23.657Z,1020.32
2018-09-12T09:04:33.231Z,1020.27
2018-09-12T09:05:43.492Z,1020.23
2018-09-12T09:06:53.338Z,1020.3
2018-09-12T09:08:02.637Z,1020.38
2018-09-12T09:09:11.935Z,1020.35
2018-09-12T09:10:21.529Z,1020.4
2018-09-12T09:11:31.525Z,1020.37
2018-09-12T09:12:41.391Z,1020.4
2018-09-12T09:13:51.238Z,1020.39
2018-09-12T09:15:01.352Z,1020.38
2018-09-12T09:16:11.195Z,1020.35
2018-09-12T09:17:20.288Z,1020.38
2018-09-12T09:18:30.297Z,1020.4
2018-09-12T09:19:40.149Z,1020.41
2018-09-12T09:20:50.003Z,1020.37
2018-09-12T09:21:59.576Z,1020.42
2018-09-12T09:23:09.295Z,1020.49
2018-09-12T09:24:18.603Z,1020.45
2018-09-12T09:25:28.187Z,1020.4
2018-09-12T09:26:38.309Z,1020.36
2018-09-12T09:27:47.880Z,1020.37
2018-09-12T09:28:57.996Z,1020.35
2018-09-12T09:30:07.305Z,1020.32
2018-09-12T09:31:17.425Z,1020.26
2018-09-12T09:32:26.722Z,1020.35
2018-09-12T09:33:36.461Z,1020.32
2018-09-12T09:34:46.628Z,1020.35
2018-09-12T09:35:57.175Z,1020.38
2018-09-12T09:37:06.753Z,1020.34
2018-09-12T09:38:16.599Z,1020.35
2018-09-12T09:39:26.177Z,1020.4
2018-09-12T09:40:36.018Z,1020.4
2018-09-12T09:41:46.138Z,1020.44
2018-09-12T09:42:56.295Z,1020.44
2018-09-12T09:44:06.601Z,1020.52
2018-09-12T09:45:16.857Z,1020.47
2018-09-12T09:46:26.809Z,1020.48
2018-09-12T09:47:36.945Z,1020.4
2018-09-12T09:48:47.168Z,1020.41
2018-09-12T09:49:57.039Z,1020.37
2018-09-12T09:51:06.341Z,1020.39
2018-09-12T09:52:16.061Z,1020.35
2018-09-12T09:53:25.901Z,1020.35
2018-09-12T09:54:35.801Z,1020.3
2018-09-12T09:55:46.510Z,1020.32
2018-09-12T09:56:56.081Z,1020.38
2018-09-12T09:58:05.388Z,1020.41
2018-09-12T09:59:15.502Z,1020.36
2018-09-12T10:00:25.408Z,1020.43
2018-09-12T10:01:35.625Z,1020.45
2018-09-12T10:02:45.743Z,1020.49
2018-09-12T10:03:55.585Z,1020.52
2018-09-12T10:05:05.153Z,1020.53
2018-09-12T10:06:14.994Z,1020.52
2018-09-12T10:07:24.298Z,1020.5
2018-09-12T10:08:34.143Z,1020.51
2018-09-12T10:09:44.184Z,1020.46
2018-09-12T10:10:54.299Z,1020.49
2018-09-12T10:12:03.872Z,1020.45
2018-09-12T10:13:13.723Z,1020.46
2018-09-12T10:14:23.310Z,1020.47
2018-09-12T10:15:33.182Z,1020.49
2018-09-12T10:16:42.761Z,1020.52
2018-09-12T10:17:52.603Z,1020.59
2018-09-12T10:19:02.443Z,1020.56
2018-09-12T10:20:12.293Z,1020.5
2018-09-12T10:21:22.196Z,1020.52
2018-09-12T10:22:32.048Z,1020.53
2018-09-12T10:23:41.614Z,1020.54
2018-09-12T10:24:51.450Z,1020.55
2018-09-12T10:26:00.763Z,1020.55
2018-09-12T10:27:10.072Z,1020.58
2018-09-12T10:28:19.647Z,1020.54
2018-09-12T10:29:29.754Z,1020.56
2018-09-12T10:30:39.916Z,1020.55
2018-09-12T10:31:49.760Z,1020.55
2018-09-12T10:32:59.335Z,1020.59
2018-09-12T10:34:09.454Z,1020.59
2018-09-12T10:35:19.307Z,1020.66
2018-09-12T10:36:29.428Z,1020.65
2018-09-12T10:37:39.009Z,1020.65
2018-09-12T10:38:48.586Z,1020.68
2018-09-12T10:39:58.432Z,1020.65
2018-09-12T10:41:07.786Z,1020.67
2018-09-12T10:42:18.032Z,1020.65
2018-09-12T10:43:27.604Z,1020.7
2018-09-12T10:44:37.718Z,1020.71
2018-09-12T10:45:47.032Z,1020.71
2018-09-12T10:46:56.603Z,1020.71
2018-09-12T10:48:06.763Z,1020.72
2018-09-12T10:49:16.925Z,1020.73
2018-09-12T10:50:26.768Z,1020.75
2018-09-12T10:51:36.341Z,1020.77
2018-09-12T10:52:45.369Z,1020.82
2018-09-12T10:53:55.220Z,1020.83
2018-09-12T10:55:05.330Z,1020.9
2018-09-12T10:56:15.451Z,1020.86
2018-09-12T10:57:25.291Z,1020.87
2018-09-12T10:58:35.140Z,1020.89
2018-09-12T10:59:45.255Z,1020.91
2018-09-12T11:00:54.836Z,1020.89
2018-09-12T11:02:04.164Z,1020.93
2018-09-12T11:03:14.011Z,1020.94
2018-09-12T11:04:23.681Z,1020.98
2018-09-12T11:05:34.205Z,1020.96
2018-09-12T11:06:44.338Z,1020.98
2018-09-12T11:07:54.215Z,1020.97
2018-09-12T11:09:04.091Z,1021.01
2018-09-12T11:10:14.200Z,1020.96
2018-09-12T11:11:24.311Z,1020.91
2018-09-12T11:12:34.426Z,1020.89
2018-09-12T11:13:44.541Z,1020.86
2018-09-12T11:14:54.431Z,1020.91
2018-09-12T11:16:03.733Z,1020.96
2018-09-12T11:17:13.843Z,1021.07
2018-09-12T11:18:23.979Z,1021.08
2018-09-12T11:19:34.094Z,1021.09
2018-09-12T11:20:43.976Z,1021.13
2018-09-12T11:21:53.831Z,1021.15
2018-09-12T11:23:03.681Z,1021.13
2018-09-12T11:24:13.524Z,1021.13
2018-09-12T11:25:23.097Z,1021.04
2018-09-12T11:26:32.666Z,1021.06
2018-09-12T11:27:42.510Z,1021.03
2018-09-12T11:28:52.093Z,1021.05
2018-09-12T11:30:01.935Z,1021.15
2018-09-12T11:31:11.785Z,1021.19
2018-09-12T11:32:21.636Z,1021.2
2018-09-12T11:33:31.748Z,1021.2
2018-09-12T11:34:41.593Z,1021.22
2018-09-12T11:35:51.445Z,1021.19
2018-09-12T11:37:01.451Z,1021.19
2018-09-12T11:38:11.300Z,1021.17
2018-09-12T11:39:20.601Z,1021.23
2018-09-12T11:40:30.444Z,1021.22
2018-09-12T11:41:40.580Z,1021.22
2018-09-12T11:42:50.424Z,1021.3
2018-09-12T11:44:00.025Z,1021.28
2018-09-12T11:45:10.139Z,1021.35
2018-09-12T11:46:19.711Z,1021.3
2018-09-12T11:47:29.549Z,1021.32
2018-09-12T11:48:39.669Z,1021.4
2018-09-12T11:49:49.510Z,1021.4
2018-09-12T11:50:59.659Z,1021.45
2018-09-12T11:52:09.207Z,1021.43
2018-09-12T11:53:19.051Z,1021.41
2018-09-12T11:54:28.656Z,1021.44
2018-09-12T11:55:38.304Z,1021.45
2018-09-12T11:56:48.253Z,1021.49
2018-09-12T11:57:58.096Z,1021.45
2018-09-12T11:59:07.399Z,1021.47
2018-09-12T12:00:16.898Z,1021.44
2018-09-12T12:01:27.023Z,1021.43
2018-09-12T12:02:36.595Z,1021.44
2018-09-12T12:03:46.717Z,1021.42
2018-09-12T12:04:56.306Z,1021.44
2018-09-12T12:06:06.449Z,1021.45
2018-09-12T12:07:16.677Z,1021.5
2018-09-12T12:08:26.789Z,1021.48
2018-09-12T12:09:36.092Z,1021.49
2018-09-12T12:10:45.933Z,1021.52
2018-09-12T12:11:56.055Z,1021.56
2018-09-12T12:13:05.900Z,1021.58
2018-09-12T12:14:16.013Z,1021.62
2018-09-12T12:15:25.675Z,1021.66
2018-09-12T12:16:35.543Z,1021.71
2018-09-12T12:17:45.120Z,1021.72
2018-09-12T12:18:54.994Z,1021.76
2018-09-12T12:20:04.326Z,1021.68
2018-09-12T12:21:13.630Z,1021.66
2018-09-12T12:22:23.474Z,1021.69
2018-09-12T12:23:33.245Z,1021.73
2018-09-12T12:24:42.821Z,1021.7
2018-09-12T12:25:52.679Z,1021.73
2018-09-12T12:27:02.261Z,1021.72
2018-09-12T12:28:11.839Z,1021.71
2018-09-12T12:29:21.565Z,1021.76
2018-09-12T12:30:31.445Z,1021.73
2018-09-12T12:31:41.286Z,1021.74
2018-09-12T12:32:51.406Z,1021.73
2018-09-12T12:34:00.706Z,1021.67
2018-09-12T12:35:10.283Z,1021.71
2018-09-12T12:36:20.293Z,1021.66
2018-09-12T12:37:29.873Z,1021.67
2018-09-12T12:38:39.173Z,1021.65
2018-09-12T12:39:49.021Z,1021.67
2018-09-12T12:40:58.336Z,1021.67
2018-09-12T12:42:08.536Z,1021.65
2018-09-12T12:43:18.107Z,1021.67
2018-09-12T12:44:27.949Z,1021.59
2018-09-12T12:45:37.517Z,1021.61
2018-09-12T12:46:47.090Z,1021.57
2018-09-12T12:47:56.660Z,1021.6
2018-09-12T12:49:06.253Z,1021.64
2018-09-12T12:50:16.375Z,1021.67
2018-09-12T12:51:25.955Z,1021.73
2018-09-12T12:52:36.110Z,1021.75
2018-09-12T12:53:45.954Z,1021.71
2018-09-12T12:54:55.793Z,1021.79
2018-09-12T12:56:05.642Z,1021.77
2018-09-12T12:57:15.768Z,1021.82
2018-09-12T12:58:25.071Z,1021.83
2018-09-12T12:59:34.920Z,1021.83
2018-09-12T13:00:44.221Z,1021.86
2018-09-12T13:01:53.852Z,1021.84
2018-09-12T13:03:03.963Z,1021.85
2018-09-12T13:04:13.810Z,1021.86
2018-09-12T13:05:23.931Z,1021.9
2018-09-12T13:06:33.932Z,1021.9
2018-09-12T13:07:43.798Z,1021.88
2018-09-12T13:08:53.672Z,1021.86
2018-09-12T13:10:03.521Z,1021.88
2018-09-12T13:11:13.641Z,1021.94
2018-09-12T13:12:22.941Z,1021.88
2018-09-12T13:13:32.510Z,1021.9
2018-09-12T13:14:42.461Z,1021.86
2018-09-12T13:15:52.494Z,1021.85
2018-09-12T13:17:02.078Z,1021.85
2018-09-12T13:18:11.916Z,1021.87
2018-09-12T13:19:21.487Z,1021.8
2018-09-12T13:20:31.370Z,1021.79
2018-09-12T13:21:41.619Z,1021.79
2018-09-12T13:22:52.313Z,1021.81
2018-09-12T13:24:01.920Z,1021.88
2018-09-12T13:25:11.782Z,1021.9
2018-09-12T13:26:21.364Z,1021.9
2018-09-12T13:27:30.946Z,1021.9
2018-09-12T13:28:40.328Z,1021.87
2018-09-12T13:29:50.193Z,1021.88
2018-09-12T13:30:59.831Z,1021.9
2018-09-12T13:32:09.145Z,1021.86
2018-09-12T13:33:18.276Z,1021.87
2018-09-12T13:34:28.208Z,1021.84
2018-09-12T13:35:38.233Z,1021.91
2018-09-12T13:36:47.924Z,1021.96
2018-09-12T13:37:58.148Z,1021.96
2018-09-12T13:39:07.995Z,1021.95
2018-09-12T13:40:17.915Z,1021.92
2018-09-12T13:41:27.506Z,1021.92
2018-09-12T13:42:36.812Z,1021.98
2018-09-12T13:43:46.939Z,1021.98
2018-09-12T13:44:56.566Z,1022.02
2018-09-12T13:46:06.691Z,1021.92
2018-09-12T13:47:16.013Z,1021.95
2018-09-12T13:48:25.595Z,1021.98
2018-09-12T13:49:35.450Z,1022
2018-09-12T13:50:45.030Z,1021.99
2018-09-12T13:51:54.884Z,1022.03
2018-09-12T13:53:05.028Z,1022.02
2018-09-12T13:54:14.347Z,1021.96
2018-09-12T13:55:23.668Z,1021.97
2018-09-12T13:56:34.012Z,1021.87
2018-09-12T13:57:44.706Z,1021.9
2018-09-12T13:58:54.290Z,1021.89
2018-09-12T14:00:03.887Z,1021.97
2018-09-12T14:01:13.206Z,1021.97
2018-09-12T14:02:22.511Z,1022.03
2018-09-12T14:03:31.553Z,1022
2018-09-12T14:04:41.133Z,1022.02
2018-09-12T14:05:50.715Z,1022.02
2018-09-12T14:07:00.294Z,1022.04